Rote, Pennsylvania
Current Conditions -  °F | °C
As of 4:35 AM on Sunday 26 Oct 2014 (Local Time) from KUNV Reporting Station
Clear Clear  
Wind Chill: 51°   Ceiling: Unl
Heat Index: 51°   Visibility: 10mi
Dew Point: 33°   Wind: 8mph
Humidity: 50%   Direction: 270°W
Pressure: 29.71"   Gusts: NA
Location:  41.0898°N, 77.4915°W
Report Text: KUNV 260835Z AUTO 27007KT 250V320 10SM CLR 11/01 A2971 RMK AO2 T01060005
Loading
Personal Weather Stations






























Interactive Weather Map
Tropical Storm Tracking
New forecast layout! Learn more

10-Day Weather Forecast

Advertisements
Track Severe Weather on mobile